sensor_id;sensor_type;location;lat;lon;timestamp;pressure;altitude;pressure_sealevel;temperature;humidity
36138;BME280;22194;50.046;21.954;2022-08-14T00:02:14;98484.79;;;19.77;73.48
36138;BME280;22194;50.046;21.954;2022-08-14T00:04:42;98488.57;;;19.78;73.49
36138;BME280;22194;50.046;21.954;2022-08-14T00:07:12;98489.32;;;19.78;73.55
36138;BME280;22194;50.046;21.954;2022-08-14T00:09:42;98483.52;;;19.78;73.58
36138;BME280;22194;50.046;21.954;2022-08-14T00:12:33;98479.84;;;19.76;73.63
36138;BME280;22194;50.046;21.954;2022-08-14T00:15:16;98484.48;;;19.75;73.67
36138;BME280;22194;50.046;21.954;2022-08-14T00:17:46;98482.77;;;19.75;73.76
36138;BME280;22194;50.046;21.954;2022-08-14T00:20:29;98480.17;;;19.74;73.67
36138;BME280;22194;50.046;21.954;2022-08-14T00:23:12;98476.84;;;19.73;73.83
36138;BME280;22194;50.046;21.954;2022-08-14T00:25:47;98477.55;;;19.73;73.70
36138;BME280;22194;50.046;21.954;2022-08-14T00:28:25;98480.02;;;19.74;73.89
36138;BME280;22194;50.046;21.954;2022-08-14T00:31:02;98477.92;;;19.75;73.82
36138;BME280;22194;50.046;21.954;2022-08-14T00:33:31;98478.35;;;19.74;73.81
36138;BME280;22194;50.046;21.954;2022-08-14T00:36:20;98477.23;;;19.71;73.77
36138;BME280;22194;50.046;21.954;2022-08-14T00:39:12;98476.11;;;19.69;73.82
36138;BME280;22194;50.046;21.954;2022-08-14T00:41:41;98479.54;;;19.67;73.92
36138;BME280;22194;50.046;21.954;2022-08-14T00:44:09;98480.20;;;19.67;73.83
36138;BME280;22194;50.046;21.954;2022-08-14T00:46:37;98480.08;;;19.67;73.89
36138;BME280;22194;50.046;21.954;2022-08-14T00:49:06;98476.92;;;19.68;73.92
36138;BME280;22194;50.046;21.954;2022-08-14T00:51:41;98477.34;;;19.67;73.90
36138;BME280;22194;50.046;21.954;2022-08-14T00:54:14;98477.52;;;19.68;74.01
36138;BME280;22194;50.046;21.954;2022-08-14T00:56:50;98477.10;;;19.68;73.98
36138;BME280;22194;50.046;21.954;2022-08-14T00:59:26;98477.55;;;19.67;74.10
36138;BME280;22194;50.046;21.954;2022-08-14T01:01:57;98479.34;;;19.67;74.16
36138;BME280;22194;50.046;21.954;2022-08-14T01:04:28;98481.19;;;19.67;74.13
36138;BME280;22194;50.046;21.954;2022-08-14T01:07:20;98486.97;;;19.67;74.11
36138;BME280;22194;50.046;21.954;2022-08-14T01:09:58;98484.20;;;19.65;74.17
36138;BME280;22194;50.046;21.954;2022-08-14T01:12:28;98488.25;;;19.64;74.12
36138;BME280;22194;50.046;21.954;2022-08-14T01:14:59;98481.33;;;19.64;74.10
36138;BME280;22194;50.046;21.954;2022-08-14T01:17:30;98482.80;;;19.63;74.15
36138;BME280;22194;50.046;21.954;2022-08-14T01:20:20;98485.77;;;19.63;74.22
36138;BME280;22194;50.046;21.954;2022-08-14T01:23:13;98485.64;;;19.62;74.21
36138;BME280;22194;50.046;21.954;2022-08-14T01:25:47;98484.34;;;19.61;74.20
36138;BME280;22194;50.046;21.954;2022-08-14T01:28:19;98487.19;;;19.60;74.19
36138;BME280;22194;50.046;21.954;2022-08-14T01:31:12;98489.10;;;19.57;74.24
36138;BME280;22194;50.046;21.954;2022-08-14T01:33:43;98489.75;;;19.57;74.27
36138;BME280;22194;50.046;21.954;2022-08-14T01:36:35;98492.94;;;19.56;74.32
36138;BME280;22194;50.046;21.954;2022-08-14T01:39:16;98492.48;;;19.55;74.33
36138;BME280;22194;50.046;21.954;2022-08-14T01:41:47;98492.27;;;19.55;74.38
36138;BME280;22194;50.046;21.954;2022-08-14T01:44:27;98488.09;;;19.54;74.35
36138;BME280;22194;50.046;21.954;2022-08-14T01:47:06;98492.14;;;19.55;74.33
36138;BME280;22194;50.046;21.954;2022-08-14T01:49:51;98492.02;;;19.54;74.37
36138;BME280;22194;50.046;21.954;2022-08-14T01:52:30;98492.77;;;19.55;74.38
36138;BME280;22194;50.046;21.954;2022-08-14T01:55:18;98492.97;;;19.55;74.49
36138;BME280;22194;50.046;21.954;2022-08-14T01:57:47;98492.77;;;19.55;74.51
36138;BME280;22194;50.046;21.954;2022-08-14T02:00:28;98498.20;;;19.55;74.46
36138;BME280;22194;50.046;21.954;2022-08-14T02:03:02;98492.86;;;19.55;74.46
36138;BME280;22194;50.046;21.954;2022-08-14T02:05:34;98501.40;;;19.55;74.51
36138;BME280;22194;50.046;21.954;2022-08-14T02:08:06;98500.33;;;19.55;74.52
36138;BME280;22194;50.046;21.954;2022-08-14T02:10:38;98504.64;;;19.55;74.60
36138;BME280;22194;50.046;21.954;2022-08-14T02:13:15;98502.27;;;19.54;74.51
36138;BME280;22194;50.046;21.954;2022-08-14T02:15:44;98499.65;;;19.52;74.43
36138;BME280;22194;50.046;21.954;2022-08-14T02:18:15;98497.44;;;19.51;74.45
36138;BME280;22194;50.046;21.954;2022-08-14T02:20:45;98490.77;;;19.51;74.62
36138;BME280;22194;50.046;21.954;2022-08-14T02:23:17;98489.89;;;19.51;74.57
36138;BME280;22194;50.046;21.954;2022-08-14T02:26:01;98493.87;;;19.51;74.57
36138;BME280;22194;50.046;21.954;2022-08-14T02:28:54;98491.21;;;19.51;74.65
36138;BME280;22194;50.046;21.954;2022-08-14T02:31:31;98491.04;;;19.50;74.64
36138;BME280;22194;50.046;21.954;2022-08-14T02:34:22;98493.80;;;19.50;74.55
36138;BME280;22194;50.046;21.954;2022-08-14T02:36:56;98495.36;;;19.49;74.65
36138;BME280;22194;50.046;21.954;2022-08-14T02:39:36;98496.13;;;19.47;74.67
36138;BME280;22194;50.046;21.954;2022-08-14T02:42:07;98499.43;;;19.46;74.68
36138;BME280;22194;50.046;21.954;2022-08-14T02:44:42;98497.35;;;19.45;74.69
36138;BME280;22194;50.046;21.954;2022-08-14T02:47:16;98498.30;;;19.45;74.74
36138;BME280;22194;50.046;21.954;2022-08-14T02:49:48;98503.16;;;19.43;74.67
36138;BME280;22194;50.046;21.954;2022-08-14T02:52:21;98508.83;;;19.43;74.56
36138;BME280;22194;50.046;21.954;2022-08-14T02:55:09;98506.17;;;19.42;74.65
36138;BME280;22194;50.046;21.954;2022-08-14T02:57:37;98509.05;;;19.41;74.63
36138;BME280;22194;50.046;21.954;2022-08-14T03:00:09;98506.23;;;19.40;74.68
36138;BME280;22194;50.046;21.954;2022-08-14T03:02:45;98507.11;;;19.39;74.75
36138;BME280;22194;50.046;21.954;2022-08-14T03:05:26;98506.52;;;19.38;74.71
36138;BME280;22194;50.046;21.954;2022-08-14T03:08:08;98508.89;;;19.36;74.67
36138;BME280;22194;50.046;21.954;2022-08-14T03:10:38;98509.61;;;19.35;74.76
36138;BME280;22194;50.046;21.954;2022-08-14T03:13:18;98508.27;;;19.33;74.70
36138;BME280;22194;50.046;21.954;2022-08-14T03:15:49;98504.81;;;19.32;74.76
36138;BME280;22194;50.046;21.954;2022-08-14T03:18:25;98503.60;;;19.29;74.82
36138;BME280;22194;50.046;21.954;2022-08-14T03:21:04;98502.77;;;19.28;74.81
36138;BME280;22194;50.046;21.954;2022-08-14T03:23:35;98504.19;;;19.27;74.84
36138;BME280;22194;50.046;21.954;2022-08-14T03:26:07;98503.78;;;19.26;74.86
36138;BME280;22194;50.046;21.954;2022-08-14T03:28:48;98502.21;;;19.26;74.76
36138;BME280;22194;50.046;21.954;2022-08-14T03:31:18;98504.77;;;19.25;74.80
36138;BME280;22194;50.046;21.954;2022-08-14T03:33:54;98504.95;;;19.25;74.75
36138;BME280;22194;50.046;21.954;2022-08-14T03:36:27;98507.38;;;19.24;74.77
36138;BME280;22194;50.046;21.954;2022-08-14T03:39:19;98508.91;;;19.22;74.84
36138;BME280;22194;50.046;21.954;2022-08-14T03:41:53;98508.08;;;19.20;74.83
36138;BME280;22194;50.046;21.954;2022-08-14T03:44:22;98508.08;;;19.19;74.79
36138;BME280;22194;50.046;21.954;2022-08-14T03:47:11;98508.80;;;19.18;74.91
36138;BME280;22194;50.046;21.954;2022-08-14T03:49:43;98509.08;;;19.19;74.90
36138;BME280;22194;50.046;21.954;2022-08-14T03:52:17;98507.95;;;19.21;74.96
36138;BME280;22194;50.046;21.954;2022-08-14T03:55:09;98507.77;;;19.23;75.00
36138;BME280;22194;50.046;21.954;2022-08-14T03:57:39;98507.05;;;19.24;74.95
36138;BME280;22194;50.046;21.954;2022-08-14T04:00:11;98506.05;;;19.25;74.96
36138;BME280;22194;50.046;21.954;2022-08-14T04:03:02;98509.97;;;19.25;75.02
36138;BME280;22194;50.046;21.954;2022-08-14T04:05:34;98507.23;;;19.26;75.00
36138;BME280;22194;50.046;21.954;2022-08-14T04:08:09;98507.68;;;19.25;74.98
36138;BME280;22194;50.046;21.954;2022-08-14T04:10:56;98502.45;;;19.25;75.08
36138;BME280;22194;50.046;21.954;2022-08-14T04:13:33;98499.52;;;19.26;74.98
36138;BME280;22194;50.046;21.954;2022-08-14T04:16:04;98495.42;;;19.24;75.01
36138;BME280;22194;50.046;21.954;2022-08-14T04:18:38;98493.30;;;19.24;74.96
36138;BME280;22194;50.046;21.954;2022-08-14T04:21:09;98487.11;;;19.21;74.85
36138;BME280;22194;50.046;21.954;2022-08-14T04:23:38;98486.64;;;19.17;74.93
36138;BME280;22194;50.046;21.954;2022-08-14T04:26:09;98487.05;;;19.17;75.03
36138;BME280;22194;50.046;21.954;2022-08-14T04:28:54;98493.54;;;19.18;75.12
36138;BME280;22194;50.046;21.954;2022-08-14T04:31:40;98493.94;;;19.17;75.00
36138;BME280;22194;50.046;21.954;2022-08-14T04:34:29;98494.06;;;19.17;75.05
36138;BME280;22194;50.046;21.954;2022-08-14T04:36:57;98496.27;;;19.18;75.15
36138;BME280;22194;50.046;21.954;2022-08-14T04:39:48;98495.58;;;19.21;75.21
36138;BME280;22194;50.046;21.954;2022-08-14T04:42:35;98490.88;;;19.23;75.29
36138;BME280;22194;50.046;21.954;2022-08-14T04:45:22;98493.25;;;19.24;75.21
36138;BME280;22194;50.046;21.954;2022-08-14T04:47:51;98492.75;;;19.25;75.19
36138;BME280;22194;50.046;21.954;2022-08-14T04:50:45;98496.90;;;19.28;75.29
36138;BME280;22194;50.046;21.954;2022-08-14T04:53:26;98494.42;;;19.31;75.36
36138;BME280;22194;50.046;21.954;2022-08-14T04:56:09;98496.14;;;19.34;75.36
36138;BME280;22194;50.046;21.954;2022-08-14T04:59:04;98496.43;;;19.38;75.39
36138;BME280;22194;50.046;21.954;2022-08-14T05:01:39;98496.14;;;19.41;75.44
36138;BME280;22194;50.046;21.954;2022-08-14T05:04:19;98497.84;;;19.43;75.26
36138;BME280;22194;50.046;21.954;2022-08-14T05:06:49;98499.24;;;19.42;75.15
36138;BME280;22194;50.046;21.954;2022-08-14T05:09:23;98499.98;;;19.40;75.23
36138;BME280;22194;50.046;21.954;2022-08-14T05:11:55;98501.31;;;19.40;75.31
36138;BME280;22194;50.046;21.954;2022-08-14T05:14:44;98502.55;;;19.41;75.45
36138;BME280;22194;50.046;21.954;2022-08-14T05:17:23;98503.95;;;19.44;75.48
36138;BME280;22194;50.046;21.954;2022-08-14T05:20:11;98506.89;;;19.48;75.43
36138;BME280;22194;50.046;21.954;2022-08-14T05:22:59;98506.05;;;19.51;75.51
36138;BME280;22194;50.046;21.954;2022-08-14T05:25:28;98503.89;;;19.53;75.44
36138;BME280;22194;50.046;21.954;2022-08-14T05:28:14;98505.63;;;19.55;75.42
36138;BME280;22194;50.046;21.954;2022-08-14T05:30:55;98506.94;;;19.57;75.52
36138;BME280;22194;50.046;21.954;2022-08-14T05:33:25;98505.17;;;19.61;75.44
36138;BME280;22194;50.046;21.954;2022-08-14T05:35:58;98500.71;;;19.68;75.47
36138;BME280;22194;50.046;21.954;2022-08-14T05:38:32;98492.69;;;19.74;75.58
36138;BME280;22194;50.046;21.954;2022-08-14T05:41:03;98489.92;;;19.82;75.48
36138;BME280;22194;50.046;21.954;2022-08-14T05:43:35;98491.35;;;19.90;75.46
36138;BME280;22194;50.046;21.954;2022-08-14T05:46:13;98490.03;;;19.97;75.56
36138;BME280;22194;50.046;21.954;2022-08-14T05:48:46;98491.01;;;20.05;75.41
36138;BME280;22194;50.046;21.954;2022-08-14T05:51:15;98490.17;;;20.14;75.41
36138;BME280;22194;50.046;21.954;2022-08-14T05:53:43;98488.44;;;20.21;75.42
36138;BME280;22194;50.046;21.954;2022-08-14T05:56:28;98492.53;;;20.30;75.44
36138;BME280;22194;50.046;21.954;2022-08-14T05:58:56;98488.05;;;20.35;75.39
36138;BME280;22194;50.046;21.954;2022-08-14T06:01:27;98490.66;;;20.41;75.36
36138;BME280;22194;50.046;21.954;2022-08-14T06:03:58;98494.03;;;20.44;75.57
36138;BME280;22194;50.046;21.954;2022-08-14T06:06:26;98494.27;;;20.46;75.34
36138;BME280;22194;50.046;21.954;2022-08-14T06:08:54;98493.13;;;20.48;75.36
36138;BME280;22194;50.046;21.954;2022-08-14T06:11:22;98491.31;;;20.53;75.48
36138;BME280;22194;50.046;21.954;2022-08-14T06:13:57;98487.84;;;20.59;75.48
36138;BME280;22194;50.046;21.954;2022-08-14T06:16:25;98485.08;;;20.64;75.55
36138;BME280;22194;50.046;21.954;2022-08-14T06:18:55;98487.54;;;20.69;75.53
36138;BME280;22194;50.046;21.954;2022-08-14T06:21:27;98490.16;;;20.73;75.21
36138;BME280;22194;50.046;21.954;2022-08-14T06:23:56;98492.56;;;20.78;75.48
36138;BME280;22194;50.046;21.954;2022-08-14T06:26:26;98498.69;;;20.82;75.38
36138;BME280;22194;50.046;21.954;2022-08-14T06:28:57;98500.14;;;20.86;75.37
36138;BME280;22194;50.046;21.954;2022-08-14T06:31:24;98508.05;;;20.85;75.06
36138;BME280;22194;50.046;21.954;2022-08-14T06:33:52;98509.67;;;20.87;75.43
36138;BME280;22194;50.046;21.954;2022-08-14T06:36:40;98509.63;;;20.91;75.20
36138;BME280;22194;50.046;21.954;2022-08-14T06:39:08;98507.91;;;20.94;75.38
36138;BME280;22194;50.046;21.954;2022-08-14T06:41:38;98510.13;;;20.95;75.20
36138;BME280;22194;50.046;21.954;2022-08-14T06:44:27;98517.16;;;20.93;75.36
36138;BME280;22194;50.046;21.954;2022-08-14T06:47:03;98521.48;;;20.92;75.30
36138;BME280;22194;50.046;21.954;2022-08-14T06:49:32;98519.41;;;20.91;75.05
36138;BME280;22194;50.046;21.954;2022-08-14T06:52:07;98523.45;;;20.89;75.07
36138;BME280;22194;50.046;21.954;2022-08-14T06:54:35;98525.86;;;20.89;75.30
36138;BME280;22194;50.046;21.954;2022-08-14T06:57:03;98528.77;;;20.88;75.12
36138;BME280;22194;50.046;21.954;2022-08-14T06:59:31;98530.63;;;20.88;75.28
36138;BME280;22194;50.046;21.954;2022-08-14T07:02:00;98531.81;;;20.86;75.20
36138;BME280;22194;50.046;21.954;2022-08-14T07:04:46;98531.88;;;20.79;75.16
36138;BME280;22194;50.046;21.954;2022-08-14T07:07:36;98531.93;;;20.77;75.20
36138;BME280;22194;50.046;21.954;2022-08-14T07:10:07;98531.13;;;20.76;75.03
36138;BME280;22194;50.046;21.954;2022-08-14T07:12:44;98531.09;;;20.75;75.06
36138;BME280;22194;50.046;21.954;2022-08-14T07:15:31;98534.61;;;20.73;75.23
36138;BME280;22194;50.046;21.954;2022-08-14T07:18:07;98530.52;;;20.68;74.87
36138;BME280;22194;50.046;21.954;2022-08-14T07:20:37;98533.71;;;20.65;75.05
36138;BME280;22194;50.046;21.954;2022-08-14T07:23:07;98536.45;;;20.68;75.06
36138;BME280;22194;50.046;21.954;2022-08-14T07:25:50;98536.12;;;20.71;75.29
36138;BME280;22194;50.046;21.954;2022-08-14T07:28:21;98533.98;;;20.72;75.16
36138;BME280;22194;50.046;21.954;2022-08-14T07:30:54;98534.08;;;20.74;75.18
36138;BME280;22194;50.046;21.954;2022-08-14T07:33:38;98535.02;;;20.80;75.29
36138;BME280;22194;50.046;21.954;2022-08-14T07:36:12;98532.74;;;20.84;75.20
36138;BME280;22194;50.046;21.954;2022-08-14T07:38:58;98531.32;;;20.90;75.23
36138;BME280;22194;50.046;21.954;2022-08-14T07:41:29;98530.77;;;20.96;75.15
36138;BME280;22194;50.046;21.954;2022-08-14T07:44:02;98528.96;;;21.00;75.15
36138;BME280;22194;50.046;21.954;2022-08-14T07:46:50;98530.13;;;21.08;74.98
36138;BME280;22194;50.046;21.954;2022-08-14T07:49:20;98530.64;;;21.37;74.68
36138;BME280;22194;50.046;21.954;2022-08-14T07:51:51;98522.80;;;21.74;74.49
36138;BME280;22194;50.046;21.954;2022-08-14T07:54:19;98520.95;;;21.84;74.87
36138;BME280;22194;50.046;21.954;2022-08-14T07:57:00;98521.14;;;21.93;75.14
36138;BME280;22194;50.046;21.954;2022-08-14T07:59:33;98525.27;;;21.95;75.15
36138;BME280;22194;50.046;21.954;2022-08-14T08:02:12;98524.59;;;22.00;74.98
36138;BME280;22194;50.046;21.954;2022-08-14T08:04:49;98521.30;;;22.08;74.75
36138;BME280;22194;50.046;21.954;2022-08-14T08:07:24;98520.95;;;22.06;74.70
36138;BME280;22194;50.046;21.954;2022-08-14T08:09:59;98515.84;;;22.07;74.66
36138;BME280;22194;50.046;21.954;2022-08-14T08:13:12;98521.73;;;22.17;74.77
36138;BME280;22194;50.046;21.954;2022-08-14T08:15:43;98525.09;;;22.25;74.51
36138;BME280;22194;50.046;21.954;2022-08-14T08:18:14;98527.39;;;22.27;74.51
36138;BME280;22194;50.046;21.954;2022-08-14T08:20:55;98528.98;;;22.35;74.55
36138;BME280;22194;50.046;21.954;2022-08-14T08:23:28;98526.45;;;22.38;74.52
36138;BME280;22194;50.046;21.954;2022-08-14T08:26:16;98526.02;;;22.40;74.45
36138;BME280;22194;50.046;21.954;2022-08-14T08:28:56;98536.19;;;22.42;74.55
36138;BME280;22194;50.046;21.954;2022-08-14T08:31:25;98532.80;;;22.40;74.42
36138;BME280;22194;50.046;21.954;2022-08-14T08:34:05;98533.58;;;22.36;74.26
36138;BME280;22194;50.046;21.954;2022-08-14T08:36:43;98533.99;;;22.37;74.17
36138;BME280;22194;50.046;21.954;2022-08-14T08:39:14;98534.54;;;22.44;74.21
36138;BME280;22194;50.046;21.954;2022-08-14T08:41:49;98533.44;;;22.47;74.24
36138;BME280;22194;50.046;21.954;2022-08-14T08:44:27;98536.35;;;22.54;74.20
36138;BME280;22194;50.046;21.954;2022-08-14T08:47:02;98533.36;;;22.59;74.26
36138;BME280;22194;50.046;21.954;2022-08-14T08:49:40;98533.58;;;22.75;74.12
36138;BME280;22194;50.046;21.954;2022-08-14T08:52:28;98527.85;;;23.02;74.01
36138;BME280;22194;50.046;21.954;2022-08-14T08:54:59;98534.13;;;23.47;73.92
36138;BME280;22194;50.046;21.954;2022-08-14T08:57:34;98537.21;;;23.81;73.73
36138;BME280;22194;50.046;21.954;2022-08-14T09:00:15;98535.67;;;23.89;73.76
36138;BME280;22194;50.046;21.954;2022-08-14T09:05:32;98533.29;;;24.11;73.55
36138;BME280;22194;50.046;21.954;2022-08-14T09:08:20;98525.98;;;24.34;73.62
36138;BME280;22194;50.046;21.954;2022-08-14T09:11:06;98527.83;;;24.67;73.40
36138;BME280;22194;50.046;21.954;2022-08-14T09:13:51;98525.93;;;25.13;73.19
36138;BME280;22194;50.046;21.954;2022-08-14T09:16:23;98516.79;;;25.53;73.17
36138;BME280;22194;50.046;21.954;2022-08-14T09:18:54;98513.74;;;25.62;73.22
36138;BME280;22194;50.046;21.954;2022-08-14T09:21:22;98507.92;;;25.69;72.88
36138;BME280;22194;50.046;21.954;2022-08-14T09:23:59;98511.98;;;25.76;73.06
36138;BME280;22194;50.046;21.954;2022-08-14T09:26:48;98512.42;;;25.69;72.68
36138;BME280;22194;50.046;21.954;2022-08-14T09:29:20;98510.70;;;25.50;72.65
36138;BME280;22194;50.046;21.954;2022-08-14T09:31:57;98507.36;;;25.35;72.52
36138;BME280;22194;50.046;21.954;2022-08-14T09:34:56;98507.37;;;25.24;72.26
36138;BME280;22194;50.046;21.954;2022-08-14T09:38:01;98500.13;;;25.11;72.32
36138;BME280;22194;50.046;21.954;2022-08-14T09:47:03;98498.91;;;24.85;71.91
36138;BME280;22194;50.046;21.954;2022-08-14T09:49:38;98497.24;;;24.79;71.78
36138;BME280;22194;50.046;21.954;2022-08-14T09:52:11;98500.58;;;24.72;71.70
36138;BME280;22194;50.046;21.954;2022-08-14T09:55:00;98500.36;;;24.71;71.75
36138;BME280;22194;50.046;21.954;2022-08-14T09:57:30;98508.52;;;24.68;71.52
36138;BME280;22194;50.046;21.954;2022-08-14T10:00:10;98505.36;;;24.66;71.40
36138;BME280;22194;50.046;21.954;2022-08-14T10:02:57;98499.48;;;24.64;71.36
36138;BME280;22194;50.046;21.954;2022-08-14T10:05:38;98498.73;;;24.72;71.25
36138;BME280;22194;50.046;21.954;2022-08-14T10:08:17;98497.97;;;24.76;71.22
36138;BME280;22194;50.046;21.954;2022-08-14T10:10:56;98498.80;;;24.78;71.20
36138;BME280;22194;50.046;21.954;2022-08-14T10:13:30;98496.07;;;24.81;71.10
36138;BME280;22194;50.046;21.954;2022-08-14T10:16:18;98497.05;;;24.84;70.94
36138;BME280;22194;50.046;21.954;2022-08-14T10:19:09;98495.17;;;24.95;70.80
36138;BME280;22194;50.046;21.954;2022-08-14T10:21:41;98489.66;;;25.11;70.80
36138;BME280;22194;50.046;21.954;2022-08-14T10:24:39;98489.60;;;25.15;70.42
36138;BME280;22194;50.046;21.954;2022-08-14T10:27:36;98486.96;;;25.15;70.67
36138;BME280;22194;50.046;21.954;2022-08-14T10:30:16;98488.25;;;25.16;70.52
36138;BME280;22194;50.046;21.954;2022-08-14T10:32:49;98482.44;;;25.21;70.41
36138;BME280;22194;50.046;21.954;2022-08-14T10:35:19;98485.17;;;25.24;70.50
36138;BME280;22194;50.046;21.954;2022-08-14T10:37:51;98482.36;;;25.30;70.39
36138;BME280;22194;50.046;21.954;2022-08-14T10:40:27;98484.42;;;25.33;70.30
36138;BME280;22194;50.046;21.954;2022-08-14T10:43:19;98482.52;;;25.37;70.24
36138;BME280;22194;50.046;21.954;2022-08-14T10:45:59;98487.56;;;25.33;69.94
36138;BME280;22194;50.046;21.954;2022-08-14T10:48:56;98488.98;;;25.30;69.96
36138;BME280;22194;50.046;21.954;2022-08-14T10:51:26;98489.73;;;25.28;69.90
36138;BME280;22194;50.046;21.954;2022-08-14T10:53:57;98491.41;;;25.25;69.96
36138;BME280;22194;50.046;21.954;2022-08-14T10:56:31;98491.02;;;25.25;69.70
36138;BME280;22194;50.046;21.954;2022-08-14T10:59:06;98489.95;;;25.22;69.62
36138;BME280;22194;50.046;21.954;2022-08-14T11:01:37;98493.83;;;25.21;69.80
36138;BME280;22194;50.046;21.954;2022-08-14T11:04:22;98497.45;;;25.19;69.68
36138;BME280;22194;50.046;21.954;2022-08-14T11:06:57;98500.29;;;25.18;69.62
36138;BME280;22194;50.046;21.954;2022-08-14T11:09:25;98503.99;;;25.16;69.48
36138;BME280;22194;50.046;21.954;2022-08-14T11:11:58;98505.27;;;25.13;69.14
36138;BME280;22194;50.046;21.954;2022-08-14T11:14:55;98510.12;;;25.07;69.21
36138;BME280;22194;50.046;21.954;2022-08-14T11:17:30;98513.92;;;25.02;69.05
36138;BME280;22194;50.046;21.954;2022-08-14T11:20:04;98516.61;;;25.01;69.18
36138;BME280;22194;50.046;21.954;2022-08-14T11:22:41;98514.98;;;25.02;68.96
36138;BME280;22194;50.046;21.954;2022-08-14T11:25:27;98513.66;;;25.04;68.92
36138;BME280;22194;50.046;21.954;2022-08-14T11:28:12;98509.91;;;25.02;69.00
36138;BME280;22194;50.046;21.954;2022-08-14T11:30:48;98510.48;;;25.03;69.06
36138;BME280;22194;50.046;21.954;2022-08-14T11:33:25;98503.33;;;25.08;68.89
36138;BME280;22194;50.046;21.954;2022-08-14T11:36:01;98498.94;;;25.13;68.87
36138;BME280;22194;50.046;21.954;2022-08-14T11:38:45;98500.71;;;25.17;68.65
36138;BME280;22194;50.046;21.954;2022-08-14T11:41:15;98499.05;;;25.21;68.82
36138;BME280;22194;50.046;21.954;2022-08-14T11:43:47;98494.73;;;25.22;68.60
36138;BME280;22194;50.046;21.954;2022-08-14T11:46:26;98495.31;;;25.22;68.65
36138;BME280;22194;50.046;21.954;2022-08-14T11:49:04;98487.95;;;25.23;68.52
36138;BME280;22194;50.046;21.954;2022-08-14T11:51:35;98484.46;;;25.24;68.50
36138;BME280;22194;50.046;21.954;2022-08-14T11:54:22;98483.05;;;25.26;68.40
36138;BME280;22194;50.046;21.954;2022-08-14T11:57:03;98486.29;;;25.31;68.32
36138;BME280;22194;50.046;21.954;2022-08-14T11:59:33;98481.98;;;25.34;68.22
36138;BME280;22194;50.046;21.954;2022-08-14T12:02:13;98475.02;;;25.37;68.31
36138;BME280;22194;50.046;21.954;2022-08-14T12:05:01;98475.13;;;25.39;68.24
36138;BME280;22194;50.046;21.954;2022-08-14T12:07:49;98465.48;;;25.35;68.02
36138;BME280;22194;50.046;21.954;2022-08-14T12:10:19;98463.39;;;25.35;68.21
36138;BME280;22194;50.046;21.954;2022-08-14T12:13:13;98453.39;;;25.38;67.95
36138;BME280;22194;50.046;21.954;2022-08-14T12:15:59;98451.40;;;25.42;68.02
36138;BME280;22194;50.046;21.954;2022-08-14T12:18:40;98448.63;;;25.47;67.92
36138;BME280;22194;50.046;21.954;2022-08-14T12:21:20;98446.86;;;25.46;67.67
36138;BME280;22194;50.046;21.954;2022-08-14T12:26:29;98429.83;;;25.53;67.64
36138;BME280;22194;50.046;21.954;2022-08-14T12:29:14;98427.39;;;25.55;67.67
36138;BME280;22194;50.046;21.954;2022-08-14T12:31:43;98426.35;;;25.57;67.55
36138;BME280;22194;50.046;21.954;2022-08-14T12:34:15;98424.63;;;25.58;67.60
36138;BME280;22194;50.046;21.954;2022-08-14T12:36:47;98420.51;;;25.60;67.43
36138;BME280;22194;50.046;21.954;2022-08-14T12:39:20;98415.90;;;25.60;67.12
36138;BME280;22194;50.046;21.954;2022-08-14T12:41:53;98414.64;;;25.61;67.41
36138;BME280;22194;50.046;21.954;2022-08-14T12:44:38;98417.35;;;25.66;67.31
36138;BME280;22194;50.046;21.954;2022-08-14T12:47:12;98410.02;;;25.74;67.30
36138;BME280;22194;50.046;21.954;2022-08-14T12:49:51;98407.11;;;25.81;67.15
36138;BME280;22194;50.046;21.954;2022-08-14T12:52:33;98397.73;;;25.85;67.06
36138;BME280;22194;50.046;21.954;2022-08-14T12:55:16;98396.38;;;25.89;67.03
36138;BME280;22194;50.046;21.954;2022-08-14T12:57:46;98393.61;;;25.93;66.93
36138;BME280;22194;50.046;21.954;2022-08-14T13:00:23;98392.56;;;25.96;66.88
36138;BME280;22194;50.046;21.954;2022-08-14T13:02:53;98387.52;;;25.97;66.83
36138;BME280;22194;50.046;21.954;2022-08-14T13:05:26;98385.66;;;25.95;66.89
36138;BME280;22194;50.046;21.954;2022-08-14T13:07:58;98385.77;;;25.97;66.63
36138;BME280;22194;50.046;21.954;2022-08-14T13:10:31;98382.27;;;25.97;66.54
36138;BME280;22194;50.046;21.954;2022-08-14T13:13:19;98378.55;;;25.98;66.61
36138;BME280;22194;50.046;21.954;2022-08-14T13:15:48;98378.91;;;25.99;66.49
36138;BME280;22194;50.046;21.954;2022-08-14T13:18:24;98375.56;;;26.02;66.51
36138;BME280;22194;50.046;21.954;2022-08-14T13:20:56;98367.84;;;26.09;66.50
36138;BME280;22194;50.046;21.954;2022-08-14T13:23:33;98374.77;;;26.13;66.47
36138;BME280;22194;50.046;21.954;2022-08-14T13:26:03;98377.04;;;26.17;66.53
36138;BME280;22194;50.046;21.954;2022-08-14T13:28:38;98379.08;;;26.21;66.06
36138;BME280;22194;50.046;21.954;2022-08-14T13:31:29;98376.11;;;26.27;66.22
36138;BME280;22194;50.046;21.954;2022-08-14T13:34:01;98377.45;;;26.28;66.07
36138;BME280;22194;50.046;21.954;2022-08-14T13:36:32;98375.33;;;26.30;66.06
36138;BME280;22194;50.046;21.954;2022-08-14T13:39:24;98377.64;;;26.33;65.86
36138;BME280;22194;50.046;21.954;2022-08-14T13:41:52;98374.27;;;26.35;65.89
36138;BME280;22194;50.046;21.954;2022-08-14T13:44:26;98371.98;;;26.37;65.73
36138;BME280;22194;50.046;21.954;2022-08-14T13:46:54;98367.95;;;26.40;65.70
36138;BME280;22194;50.046;21.954;2022-08-14T13:49:22;98367.03;;;26.44;65.76
36138;BME280;22194;50.046;21.954;2022-08-14T13:51:52;98368.67;;;26.49;65.48
36138;BME280;22194;50.046;21.954;2022-08-14T13:54:58;98358.73;;;26.53;65.44